sensor_id;sensor_type;location;lat;lon;timestamp;pressure;altitude;pressure_sealevel;temperature;humidity
40155;BME280;25875;48.202;16.334;2023-07-13T00:01:15;98831.44;;;23.34;56.67
40155;BME280;25875;48.202;16.334;2023-07-13T00:03:42;98832.81;;;23.30;56.72
40155;BME280;25875;48.202;16.334;2023-07-13T00:06:09;98842.31;;;23.26;56.83
40155;BME280;25875;48.202;16.334;2023-07-13T00:08:36;98727.44;;;22.60;57.03
40155;BME280;25875;48.202;16.334;2023-07-13T00:11:03;98823.88;;;23.30;56.63
40155;BME280;25875;48.202;16.334;2023-07-13T00:13:32;98794.91;;;23.08;57.12
40155;BME280;25875;48.202;16.334;2023-07-13T00:15:59;98816.44;;;23.24;56.76
40155;BME280;25875;48.202;16.334;2023-07-13T00:18:27;98813.06;;;23.22;56.85
40155;BME280;25875;48.202;16.334;2023-07-13T00:20:55;98806.16;;;23.19;56.69
40155;BME280;25875;48.202;16.334;2023-07-13T00:23:30;98802.59;;;23.27;56.54
40155;BME280;25875;48.202;16.334;2023-07-13T00:25:59;98799.88;;;23.27;56.63
40155;BME280;25875;48.202;16.334;2023-07-13T00:28:26;98791.13;;;23.17;57.09
40155;BME280;25875;48.202;16.334;2023-07-13T00:30:52;98791.66;;;23.12;56.77
40155;BME280;25875;48.202;16.334;2023-07-13T00:33:19;98794.25;;;23.05;56.83
40155;BME280;25875;48.202;16.334;2023-07-13T00:35:48;98789.38;;;23.01;56.72
40155;BME280;25875;48.202;16.334;2023-07-13T00:38:14;98786.63;;;23.09;56.49
40155;BME280;25875;48.202;16.334;2023-07-13T00:40:41;98760.97;;;22.74;57.06
40155;BME280;25875;48.202;16.334;2023-07-13T00:43:11;98781.63;;;22.98;56.47
40155;BME280;25875;48.202;16.334;2023-07-13T00:46:22;98782.31;;;22.92;56.56
40155;BME280;25875;48.202;16.334;2023-07-13T00:48:50;98781.66;;;22.90;56.35
40155;BME280;25875;48.202;16.334;2023-07-13T00:51:23;98769.84;;;22.91;56.37
40155;BME280;25875;48.202;16.334;2023-07-13T00:53:53;98754.69;;;22.82;56.55
40155;BME280;25875;48.202;16.334;2023-07-13T00:56:21;98750.97;;;22.83;56.46
40155;BME280;25875;48.202;16.334;2023-07-13T00:58:47;98751.00;;;22.75;56.13
40155;BME280;25875;48.202;16.334;2023-07-13T01:01:15;98740.13;;;22.91;55.59
40155;BME280;25875;48.202;16.334;2023-07-13T01:03:43;98738.13;;;22.85;55.40
40155;BME280;25875;48.202;16.334;2023-07-13T01:06:10;98722.28;;;22.82;54.89
40155;BME280;25875;48.202;16.334;2023-07-13T01:08:37;98727.38;;;22.77;54.31
40155;BME280;25875;48.202;16.334;2023-07-13T01:11:05;98712.19;;;22.76;54.24
40155;BME280;25875;48.202;16.334;2023-07-13T01:13:33;98710.94;;;22.86;53.07
40155;BME280;25875;48.202;16.334;2023-07-13T01:16:03;98716.34;;;22.86;52.61
40155;BME280;25875;48.202;16.334;2023-07-13T01:18:33;98723.28;;;22.81;52.23
40155;BME280;25875;48.202;16.334;2023-07-13T01:21:03;98708.34;;;22.93;52.22
40155;BME280;25875;48.202;16.334;2023-07-13T01:23:31;98697.47;;;22.78;51.91
40155;BME280;25875;48.202;16.334;2023-07-13T01:25:58;98729.66;;;22.88;51.91
40155;BME280;25875;48.202;16.334;2023-07-13T01:28:26;98715.50;;;22.86;51.73
40155;BME280;25875;48.202;16.334;2023-07-13T01:30:54;98707.25;;;22.79;51.92
40155;BME280;25875;48.202;16.334;2023-07-13T01:33:21;98709.72;;;22.89;51.44
40155;BME280;25875;48.202;16.334;2023-07-13T01:35:48;98675.38;;;22.75;51.24
40155;BME280;25875;48.202;16.334;2023-07-13T01:38:18;98706.53;;;22.85;51.02
40155;BME280;25875;48.202;16.334;2023-07-13T01:40:46;98699.28;;;22.86;51.18
40155;BME280;25875;48.202;16.334;2023-07-13T01:43:13;98693.22;;;22.84;50.80
40155;BME280;25875;48.202;16.334;2023-07-13T01:45:40;98698.44;;;22.85;50.87
40155;BME280;25875;48.202;16.334;2023-07-13T01:48:06;98689.97;;;22.88;50.95
40155;BME280;25875;48.202;16.334;2023-07-13T01:50:33;98674.78;;;22.87;50.91
40155;BME280;25875;48.202;16.334;2023-07-13T01:53:00;98669.75;;;22.84;51.18
40155;BME280;25875;48.202;16.334;2023-07-13T01:55:29;98647.28;;;22.61;51.05
40155;BME280;25875;48.202;16.334;2023-07-13T01:57:56;98673.81;;;22.80;51.39
40155;BME280;25875;48.202;16.334;2023-07-13T02:00:22;98671.59;;;22.84;51.19
40155;BME280;25875;48.202;16.334;2023-07-13T02:02:50;98696.75;;;22.84;51.25
40155;BME280;25875;48.202;16.334;2023-07-13T02:05:17;98706.41;;;22.79;51.55
40155;BME280;25875;48.202;16.334;2023-07-13T02:07:44;98698.13;;;22.80;51.69
40155;BME280;25875;48.202;16.334;2023-07-13T02:10:11;98696.28;;;22.81;51.70
40155;BME280;25875;48.202;16.334;2023-07-13T02:12:42;98700.00;;;22.80;51.83
40155;BME280;25875;48.202;16.334;2023-07-13T02:15:16;98695.75;;;22.85;51.73
40155;BME280;25875;48.202;16.334;2023-07-13T02:17:43;98709.97;;;22.79;52.29
40155;BME280;25875;48.202;16.334;2023-07-13T02:20:10;98709.72;;;22.89;52.00
40155;BME280;25875;48.202;16.334;2023-07-13T02:22:37;98719.56;;;22.82;52.25
40155;BME280;25875;48.202;16.334;2023-07-13T02:25:04;98731.63;;;22.71;52.39
40155;BME280;25875;48.202;16.334;2023-07-13T02:27:31;98763.47;;;22.84;52.75
40155;BME280;25875;48.202;16.334;2023-07-13T02:30:00;98773.72;;;22.88;52.69
40155;BME280;25875;48.202;16.334;2023-07-13T02:32:26;98790.16;;;22.79;53.10
40155;BME280;25875;48.202;16.334;2023-07-13T02:34:53;98792.19;;;22.77;53.39
40155;BME280;25875;48.202;16.334;2023-07-13T02:37:20;98805.69;;;22.77;53.31
40155;BME280;25875;48.202;16.334;2023-07-13T02:39:47;98827.50;;;22.75;53.44
40155;BME280;25875;48.202;16.334;2023-07-13T02:42:14;98818.19;;;22.78;53.40
40155;BME280;25875;48.202;16.334;2023-07-13T02:44:40;98856.69;;;22.80;53.59
40155;BME280;25875;48.202;16.334;2023-07-13T02:47:08;98867.47;;;22.80;53.75
40155;BME280;25875;48.202;16.334;2023-07-13T02:49:35;98889.44;;;22.77;53.99
40155;BME280;25875;48.202;16.334;2023-07-13T02:52:03;98879.97;;;22.81;54.44
40155;BME280;25875;48.202;16.334;2023-07-13T02:54:30;98892.16;;;22.68;54.55
40155;BME280;25875;48.202;16.334;2023-07-13T02:56:56;98815.44;;;22.14;54.91
40155;BME280;25875;48.202;16.334;2023-07-13T02:59:23;98926.44;;;22.68;55.62
40155;BME280;25875;48.202;16.334;2023-07-13T03:01:50;98927.78;;;22.72;55.70
40155;BME280;25875;48.202;16.334;2023-07-13T03:04:18;98937.41;;;22.66;55.72
40155;BME280;25875;48.202;16.334;2023-07-13T03:06:45;98939.78;;;22.61;56.15
40155;BME280;25875;48.202;16.334;2023-07-13T03:09:12;98945.34;;;22.60;56.14
40155;BME280;25875;48.202;16.334;2023-07-13T03:11:39;98943.66;;;22.42;57.29
40155;BME280;25875;48.202;16.334;2023-07-13T03:14:07;98949.88;;;22.51;56.91
40155;BME280;25875;48.202;16.334;2023-07-13T03:16:33;98948.88;;;22.52;57.52
40155;BME280;25875;48.202;16.334;2023-07-13T03:19:00;98951.25;;;22.47;57.77
40155;BME280;25875;48.202;16.334;2023-07-13T03:21:28;98951.06;;;22.49;58.35
40155;BME280;25875;48.202;16.334;2023-07-13T03:23:55;98950.53;;;22.37;58.55
40155;BME280;25875;48.202;16.334;2023-07-13T03:26:22;98940.78;;;22.44;58.29
40155;BME280;25875;48.202;16.334;2023-07-13T03:28:48;98933.69;;;22.43;58.48
40155;BME280;25875;48.202;16.334;2023-07-13T03:31:17;98921.88;;;22.20;59.17
40155;BME280;25875;48.202;16.334;2023-07-13T03:33:45;98941.94;;;22.33;59.04
40155;BME280;25875;48.202;16.334;2023-07-13T03:36:15;98930.97;;;22.19;59.94
40155;BME280;25875;48.202;16.334;2023-07-13T03:38:46;98931.66;;;22.21;59.83
40155;BME280;25875;48.202;16.334;2023-07-13T03:41:13;98912.09;;;22.19;59.91
40155;BME280;25875;48.202;16.334;2023-07-13T03:43:40;98934.34;;;22.29;60.65
40155;BME280;25875;48.202;16.334;2023-07-13T03:46:07;98937.72;;;22.06;60.97
40155;BME280;25875;48.202;16.334;2023-07-13T03:48:34;98944.63;;;22.09;61.07
40155;BME280;25875;48.202;16.334;2023-07-13T03:51:01;98944.13;;;22.05;61.32
40155;BME280;25875;48.202;16.334;2023-07-13T03:53:28;98937.56;;;22.08;61.26
40155;BME280;25875;48.202;16.334;2023-07-13T03:55:56;98938.72;;;21.97;61.53
40155;BME280;25875;48.202;16.334;2023-07-13T03:58:28;98952.22;;;22.05;61.51
40155;BME280;25875;48.202;16.334;2023-07-13T04:00:56;98944.97;;;21.98;61.43
40155;BME280;25875;48.202;16.334;2023-07-13T04:03:24;98925.72;;;21.85;61.85
40155;BME280;25875;48.202;16.334;2023-07-13T04:05:54;98956.44;;;21.92;62.43
40155;BME280;25875;48.202;16.334;2023-07-13T04:08:26;98952.16;;;21.73;63.94
40155;BME280;25875;48.202;16.334;2023-07-13T04:10:53;98949.00;;;21.94;63.80
40155;BME280;25875;48.202;16.334;2023-07-13T04:13:22;98948.50;;;21.90;63.65
40155;BME280;25875;48.202;16.334;2023-07-13T04:15:49;98951.53;;;21.87;64.62
40155;BME280;25875;48.202;16.334;2023-07-13T04:18:16;98957.34;;;21.66;65.81
40155;BME280;25875;48.202;16.334;2023-07-13T04:20:43;98951.34;;;21.81;64.52
40155;BME280;25875;48.202;16.334;2023-07-13T04:23:10;98932.94;;;21.76;64.52
40155;BME280;25875;48.202;16.334;2023-07-13T04:25:37;98901.72;;;21.65;64.44
40155;BME280;25875;48.202;16.334;2023-07-13T04:28:04;98915.28;;;21.82;64.83
40155;BME280;25875;48.202;16.334;2023-07-13T04:30:33;98905.13;;;21.75;66.11
40155;BME280;25875;48.202;16.334;2023-07-13T04:32:59;98896.66;;;21.62;67.28
40155;BME280;25875;48.202;16.334;2023-07-13T04:35:26;98893.13;;;21.62;67.96
40155;BME280;25875;48.202;16.334;2023-07-13T04:37:53;98892.09;;;21.55;68.50
40155;BME280;25875;48.202;16.334;2023-07-13T04:40:20;98877.22;;;21.34;68.36
40155;BME280;25875;48.202;16.334;2023-07-13T04:42:47;98885.88;;;21.62;67.02
40155;BME280;25875;48.202;16.334;2023-07-13T04:45:14;98875.56;;;21.41;68.59
40155;BME280;25875;48.202;16.334;2023-07-13T04:47:42;98775.91;;;20.99;68.29
40155;BME280;25875;48.202;16.334;2023-07-13T04:50:10;98784.38;;;21.12;68.42
40155;BME280;25875;48.202;16.334;2023-07-13T04:52:37;98849.09;;;21.37;69.31
40155;BME280;25875;48.202;16.334;2023-07-13T04:55:04;98850.31;;;21.59;68.61
40155;BME280;25875;48.202;16.334;2023-07-13T04:57:31;98848.63;;;21.58;68.47
40155;BME280;25875;48.202;16.334;2023-07-13T04:59:58;98730.28;;;20.98;68.16
40155;BME280;25875;48.202;16.334;2023-07-13T05:02:26;98833.31;;;21.58;68.37
40155;BME280;25875;48.202;16.334;2023-07-13T05:04:55;98836.16;;;21.57;67.58
40155;BME280;25875;48.202;16.334;2023-07-13T05:07:21;98834.66;;;21.54;68.28
40155;BME280;25875;48.202;16.334;2023-07-13T05:09:48;98831.44;;;21.67;66.13
40155;BME280;25875;48.202;16.334;2023-07-13T05:12:15;98829.25;;;21.62;66.45
40155;BME280;25875;48.202;16.334;2023-07-13T05:14:41;98831.78;;;21.64;68.60
40155;BME280;25875;48.202;16.334;2023-07-13T05:17:08;98819.66;;;21.52;68.72
40155;BME280;25875;48.202;16.334;2023-07-13T05:19:35;98816.59;;;21.38;69.63
40155;BME280;25875;48.202;16.334;2023-07-13T05:22:04;98810.69;;;21.35;70.08
40155;BME280;25875;48.202;16.334;2023-07-13T05:24:31;98810.88;;;21.41;69.48
40155;BME280;25875;48.202;16.334;2023-07-13T05:26:57;98810.03;;;21.41;67.67
40155;BME280;25875;48.202;16.334;2023-07-13T05:29:24;98816.28;;;21.50;67.48
40155;BME280;25875;48.202;16.334;2023-07-13T05:31:51;98820.81;;;21.49;65.83
40155;BME280;25875;48.202;16.334;2023-07-13T05:34:17;98824.38;;;21.66;64.44
40155;BME280;25875;48.202;16.334;2023-07-13T05:36:44;98841.91;;;21.62;64.74
40155;BME280;25875;48.202;16.334;2023-07-13T05:39:12;98840.03;;;21.62;63.46
40155;BME280;25875;48.202;16.334;2023-07-13T05:41:39;98845.44;;;21.62;63.35
40155;BME280;25875;48.202;16.334;2023-07-13T05:44:06;98856.22;;;21.62;62.54
40155;BME280;25875;48.202;16.334;2023-07-13T05:46:33;98855.56;;;21.68;62.58
40155;BME280;25875;48.202;16.334;2023-07-13T05:48:59;98860.25;;;21.58;62.65
40155;BME280;25875;48.202;16.334;2023-07-13T05:51:26;98831.59;;;21.41;62.61
40155;BME280;25875;48.202;16.334;2023-07-13T05:53:53;98858.75;;;21.56;63.26
40155;BME280;25875;48.202;16.334;2023-07-13T05:56:21;98860.75;;;21.45;64.06
40155;BME280;25875;48.202;16.334;2023-07-13T05:58:48;98870.53;;;21.46;63.98
40155;BME280;25875;48.202;16.334;2023-07-13T06:01:16;98871.16;;;21.32;64.48
40155;BME280;25875;48.202;16.334;2023-07-13T06:03:43;98879.56;;;21.29;64.81
40155;BME280;25875;48.202;16.334;2023-07-13T06:06:10;98881.94;;;21.32;64.43
40155;BME280;25875;48.202;16.334;2023-07-13T06:08:37;98811.72;;;20.92;65.09
40155;BME280;25875;48.202;16.334;2023-07-13T06:11:06;98883.97;;;21.30;65.05
40155;BME280;25875;48.202;16.334;2023-07-13T06:13:34;98893.38;;;21.26;65.14
40155;BME280;25875;48.202;16.334;2023-07-13T06:16:02;98894.03;;;21.20;64.96
40155;BME280;25875;48.202;16.334;2023-07-13T06:18:32;98897.22;;;21.16;64.99
40155;BME280;25875;48.202;16.334;2023-07-13T06:20:58;98905.81;;;21.19;65.06
40155;BME280;25875;48.202;16.334;2023-07-13T06:23:25;98919.28;;;21.19;65.36
40155;BME280;25875;48.202;16.334;2023-07-13T06:25:52;98921.94;;;21.11;65.28
40155;BME280;25875;48.202;16.334;2023-07-13T06:28:19;98927.50;;;21.09;66.30
40155;BME280;25875;48.202;16.334;2023-07-13T06:30:47;98924.66;;;21.11;65.78
40155;BME280;25875;48.202;16.334;2023-07-13T06:33:14;98948.75;;;21.12;65.50
40155;BME280;25875;48.202;16.334;2023-07-13T06:35:40;98835.44;;;20.46;65.53
40155;BME280;25875;48.202;16.334;2023-07-13T06:38:07;98940.28;;;21.07;66.25
40155;BME280;25875;48.202;16.334;2023-07-13T06:40:34;98956.97;;;21.11;66.62
40155;BME280;25875;48.202;16.334;2023-07-13T06:43:01;98954.44;;;21.09;66.11
40155;BME280;25875;48.202;16.334;2023-07-13T06:45:27;98963.06;;;21.13;66.44
40155;BME280;25875;48.202;16.334;2023-07-13T06:47:55;98912.53;;;20.81;66.63
40155;BME280;25875;48.202;16.334;2023-07-13T06:50:22;98959.47;;;21.04;66.69
40155;BME280;25875;48.202;16.334;2023-07-13T06:52:49;98948.56;;;21.14;66.11
40155;BME280;25875;48.202;16.334;2023-07-13T06:55:16;98963.91;;;21.13;66.32
40155;BME280;25875;48.202;16.334;2023-07-13T06:57:42;98955.63;;;21.07;66.28
40155;BME280;25875;48.202;16.334;2023-07-13T07:00:10;98966.44;;;21.15;66.01
40155;BME280;25875;48.202;16.334;2023-07-13T07:02:37;98983.09;;;21.10;65.87
40155;BME280;25875;48.202;16.334;2023-07-13T07:05:06;98950.78;;;21.19;65.95
40155;BME280;25875;48.202;16.334;2023-07-13T07:07:33;98953.00;;;21.23;66.15
40155;BME280;25875;48.202;16.334;2023-07-13T07:10:00;98953.63;;;21.17;66.40
40155;BME280;25875;48.202;16.334;2023-07-13T07:12:28;98919.41;;;21.09;66.85
40155;BME280;25875;48.202;16.334;2023-07-13T07:14:55;98950.97;;;21.25;66.72
40155;BME280;25875;48.202;16.334;2023-07-13T07:17:22;98949.97;;;21.26;66.28
40155;BME280;25875;48.202;16.334;2023-07-13T07:19:48;98962.59;;;21.26;65.75
40155;BME280;25875;48.202;16.334;2023-07-13T07:22:16;98959.06;;;21.25;64.94
40155;BME280;25875;48.202;16.334;2023-07-13T07:24:43;98945.59;;;21.25;64.71
40155;BME280;25875;48.202;16.334;2023-07-13T07:27:10;98952.66;;;21.26;64.36
40155;BME280;25875;48.202;16.334;2023-07-13T07:29:36;98945.59;;;21.25;64.46
40155;BME280;25875;48.202;16.334;2023-07-13T07:32:04;98954.00;;;21.22;63.94
40155;BME280;25875;48.202;16.334;2023-07-13T07:34:31;98854.03;;;20.65;64.34
40155;BME280;25875;48.202;16.334;2023-07-13T07:36:59;98952.03;;;21.32;63.87
40155;BME280;25875;48.202;16.334;2023-07-13T07:39:27;98942.94;;;21.33;63.69
40155;BME280;25875;48.202;16.334;2023-07-13T07:41:54;98949.00;;;21.35;63.67
40155;BME280;25875;48.202;16.334;2023-07-13T07:44:21;98890.53;;;20.94;63.39
40155;BME280;25875;48.202;16.334;2023-07-13T07:46:48;98964.84;;;21.38;63.26
40155;BME280;25875;48.202;16.334;2023-07-13T07:49:15;98963.47;;;21.34;63.25
40155;BME280;25875;48.202;16.334;2023-07-13T07:51:42;98966.69;;;21.38;63.45
40155;BME280;25875;48.202;16.334;2023-07-13T07:54:09;98908.13;;;21.06;63.13
40155;BME280;25875;48.202;16.334;2023-07-13T07:56:37;98943.97;;;21.40;62.92
40155;BME280;25875;48.202;16.334;2023-07-13T07:59:03;98951.22;;;21.40;62.70
40155;BME280;25875;48.202;16.334;2023-07-13T08:01:30;98967.22;;;21.41;62.13
40155;BME280;25875;48.202;16.334;2023-07-13T08:03:57;98946.16;;;21.45;62.02
40155;BME280;25875;48.202;16.334;2023-07-13T08:06:24;98968.28;;;21.57;61.99
40155;BME280;25875;48.202;16.334;2023-07-13T08:08:51;98952.63;;;21.68;61.88
40155;BME280;25875;48.202;16.334;2023-07-13T08:11:17;98966.88;;;21.87;61.59
40155;BME280;25875;48.202;16.334;2023-07-13T08:13:45;98968.72;;;21.86;61.41
40155;BME280;25875;48.202;16.334;2023-07-13T08:16:12;98928.44;;;21.85;61.18
40155;BME280;25875;48.202;16.334;2023-07-13T08:18:39;98570.97;;;19.85;60.41
40155;BME280;25875;48.202;16.334;2023-07-13T08:21:07;98964.72;;;22.39;60.46
40155;BME280;25875;48.202;16.334;2023-07-13T08:23:34;98973.53;;;22.49;59.86
40155;BME280;25875;48.202;16.334;2023-07-13T08:26:02;98974.03;;;22.69;59.91
40155;BME280;25875;48.202;16.334;2023-07-13T08:28:30;98982.09;;;22.93;59.17
40155;BME280;25875;48.202;16.334;2023-07-13T08:31:02;98968.59;;;22.93;58.60
40155;BME280;25875;48.202;16.334;2023-07-13T08:33:29;98974.97;;;23.09;58.12
40155;BME280;25875;48.202;16.334;2023-07-13T08:35:55;98970.69;;;23.22;57.81
40155;BME280;25875;48.202;16.334;2023-07-13T08:38:23;98957.19;;;23.30;56.75
40155;BME280;25875;48.202;16.334;2023-07-13T08:40:52;98972.66;;;23.45;56.69
40155;BME280;25875;48.202;16.334;2023-07-13T08:43:21;98975.19;;;23.46;56.57
40155;BME280;25875;48.202;16.334;2023-07-13T08:45:52;98973.47;;;23.53;56.09
40155;BME280;25875;48.202;16.334;2023-07-13T08:48:26;98968.09;;;23.76;55.78
40155;BME280;25875;48.202;16.334;2023-07-13T08:50:58;98973.16;;;23.79;55.62
40155;BME280;25875;48.202;16.334;2023-07-13T08:53:45;98967.81;;;23.71;55.69
40155;BME280;25875;48.202;16.334;2023-07-13T08:56:20;98833.09;;;23.04;55.32
40155;BME280;25875;48.202;16.334;2023-07-13T08:58:51;98963.41;;;24.01;55.45
40155;BME280;25875;48.202;16.334;2023-07-13T09:01:25;98959.16;;;24.07;55.05
40155;BME280;25875;48.202;16.334;2023-07-13T09:04:01;98986.47;;;24.20;55.08
40155;BME280;25875;48.202;16.334;2023-07-13T09:06:40;98971.06;;;24.20;54.45
40155;BME280;25875;48.202;16.334;2023-07-13T09:09:20;98974.66;;;24.13;55.02
40155;BME280;25875;48.202;16.334;2023-07-13T09:11:57;98984.53;;;24.28;54.99
40155;BME280;25875;48.202;16.334;2023-07-13T09:14:40;98974.25;;;24.61;54.59
40155;BME280;25875;48.202;16.334;2023-07-13T09:17:13;98984.41;;;24.68;54.38
40155;BME280;25875;48.202;16.334;2023-07-13T09:19:43;98980.03;;;24.81;53.91
40155;BME280;25875;48.202;16.334;2023-07-13T09:22:18;98975.47;;;24.59;54.09
40155;BME280;25875;48.202;16.334;2023-07-13T09:24:52;98967.31;;;24.67;53.93
40155;BME280;25875;48.202;16.334;2023-07-13T09:27:23;98979.66;;;24.84;53.53
40155;BME280;25875;48.202;16.334;2023-07-13T09:29:55;98958.66;;;24.63;53.08
40155;BME280;25875;48.202;16.334;2023-07-13T09:32:24;98976.31;;;24.59;53.65
40155;BME280;25875;48.202;16.334;2023-07-13T09:34:54;98975.84;;;24.56;53.36
40155;BME280;25875;48.202;16.334;2023-07-13T09:37:24;98970.41;;;24.79;53.54
40155;BME280;25875;48.202;16.334;2023-07-13T09:39:55;98973.41;;;24.84;52.80
40155;BME280;25875;48.202;16.334;2023-07-13T09:42:22;98987.78;;;24.84;52.44
40155;BME280;25875;48.202;16.334;2023-07-13T09:44:53;98973.50;;;24.90;52.17
40155;BME280;25875;48.202;16.334;2023-07-13T09:47:21;98989.38;;;24.79;52.17
40155;BME280;25875;48.202;16.334;2023-07-13T09:49:54;98985.06;;;24.70;52.49
40155;BME280;25875;48.202;16.334;2023-07-13T09:52:21;98977.31;;;24.81;52.75
40155;BME280;25875;48.202;16.334;2023-07-13T09:54:49;98975.81;;;24.79;52.16
40155;BME280;25875;48.202;16.334;2023-07-13T09:57:18;98967.81;;;24.85;52.02
40155;BME280;25875;48.202;16.334;2023-07-13T09:59:49;98971.13;;;25.10;51.45
40155;BME280;25875;48.202;16.334;2023-07-13T10:02:24;98974.19;;;25.07;51.14
40155;BME280;25875;48.202;16.334;2023-07-13T10:04:57;98992.25;;;25.15;50.53
40155;BME280;25875;48.202;16.334;2023-07-13T10:07:25;98968.22;;;25.26;50.51
40155;BME280;25875;48.202;16.334;2023-07-13T10:09:52;98885.28;;;24.88;50.45
40155;BME280;25875;48.202;16.334;2023-07-13T10:12:20;98965.03;;;25.52;49.95
40155;BME280;25875;48.202;16.334;2023-07-13T10:14:50;98979.81;;;25.20;50.08
40155;BME280;25875;48.202;16.334;2023-07-13T10:17:19;98979.25;;;25.10;50.25
40155;BME280;25875;48.202;16.334;2023-07-13T10:19:52;98974.69;;;25.11;49.97
40155;BME280;25875;48.202;16.334;2023-07-13T10:22:25;98981.34;;;25.38;49.54
40155;BME280;25875;48.202;16.334;2023-07-13T10:27:16;98973.25;;;25.59;49.47
40155;BME280;25875;48.202;16.334;2023-07-13T10:29:46;98981.22;;;25.61;49.19
40155;BME280;25875;48.202;16.334;2023-07-13T10:32:14;98985.41;;;25.63;48.88
40155;BME280;25875;48.202;16.334;2023-07-13T10:34:44;99002.09;;;25.60;48.78
40155;BME280;25875;48.202;16.334;2023-07-13T10:37:17;98984.78;;;25.46;49.17
40155;BME280;25875;48.202;16.334;2023-07-13T10:39:46;98990.31;;;25.38;48.79
40155;BME280;25875;48.202;16.334;2023-07-13T10:42:21;98988.50;;;25.31;48.59
40155;BME280;25875;48.202;16.334;2023-07-13T10:44:51;98980.28;;;25.09;48.36
40155;BME280;25875;48.202;16.334;2023-07-13T10:47:18;99012.06;;;25.15;48.47
40155;BME280;25875;48.202;16.334;2023-07-13T10:49:47;98994.50;;;25.26;48.39
40155;BME280;25875;48.202;16.334;2023-07-13T10:52:41;98989.44;;;25.23;48.26
40155;BME280;25875;48.202;16.334;2023-07-13T10:55:33;98978.59;;;25.23;48.11
40155;BME280;25875;48.202;16.334;2023-07-13T10:58:10;98983.19;;;25.22;48.19
40155;BME280;25875;48.202;16.334;2023-07-13T11:00:46;98974.28;;;25.28;47.74
40155;BME280;25875;48.202;16.334;2023-07-13T11:03:15;98978.88;;;25.28;46.97
40155;BME280;25875;48.202;16.334;2023-07-13T11:05:44;98997.78;;;25.21;47.19
40155;BME280;25875;48.202;16.334;2023-07-13T11:08:19;98976.25;;;25.20;46.26
40155;BME280;25875;48.202;16.334;2023-07-13T11:10:52;98918.81;;;24.87;46.44
40155;BME280;25875;48.202;16.334;2023-07-13T11:13:58;98980.94;;;25.26;46.36
40155;BME280;25875;48.202;16.334;2023-07-13T11:16:43;98975.31;;;25.27;46.06
40155;BME280;25875;48.202;16.334;2023-07-13T11:22:24;98992.44;;;25.28;45.84
40155;BME280;25875;48.202;16.334;2023-07-13T11:24:56;98985.53;;;25.25;46.12
40155;BME280;25875;48.202;16.334;2023-07-13T11:27:35;98982.47;;;25.43;46.44
40155;BME280;25875;48.202;16.334;2023-07-13T11:33:15;98978.25;;;25.41;46.17
40155;BME280;25875;48.202;16.334;2023-07-13T11:35:52;98981.63;;;25.43;46.92
40155;BME280;25875;48.202;16.334;2023-07-13T11:40:45;98988.06;;;25.56;47.10
40155;BME280;25875;48.202;16.334;2023-07-13T11:43:13;98998.41;;;25.68;46.66
40155;BME280;25875;48.202;16.334;2023-07-13T11:45:40;98991.66;;;25.78;45.97
40155;BME280;25875;48.202;16.334;2023-07-13T11:48:18;98998.88;;;25.71;45.83
40155;BME280;25875;48.202;16.334;2023-07-13T11:50:51;98988.22;;;25.70;45.53
40155;BME280;25875;48.202;16.334;2023-07-13T11:53:18;98976.59;;;25.76;45.66
40155;BME280;25875;48.202;16.334;2023-07-13T11:55:47;98985.28;;;25.86;45.94
40155;BME280;25875;48.202;16.334;2023-07-13T11:58:18;98979.00;;;25.85;45.17
40155;BME280;25875;48.202;16.334;2023-07-13T12:00:46;98963.38;;;25.87;45.39
40155;BME280;25875;48.202;16.334;2023-07-13T12:03:17;98965.81;;;25.97;45.08
40155;BME280;25875;48.202;16.334;2023-07-13T12:05:55;98690.94;;;24.52;44.49
40155;BME280;25875;48.202;16.334;2023-07-13T12:08:23;98957.84;;;26.17;43.87
40155;BME280;25875;48.202;16.334;2023-07-13T12:10:59;98956.81;;;26.18;43.08
40155;BME280;25875;48.202;16.334;2023-07-13T12:13:27;98949.69;;;26.38;41.61
40155;BME280;25875;48.202;16.334;2023-07-13T12:15:56;98959.66;;;26.52;41.49
40155;BME280;25875;48.202;16.334;2023-07-13T12:18:29;98946.00;;;26.67;41.67
40155;BME280;25875;48.202;16.334;2023-07-13T12:20:58;98835.19;;;26.41;41.65
40155;BME280;25875;48.202;16.334;2023-07-13T12:23:29;98942.03;;;26.98;41.48
40155;BME280;25875;48.202;16.334;2023-07-13T12:25:59;98932.41;;;26.67;41.40
40155;BME280;25875;48.202;16.334;2023-07-13T12:28:33;98868.94;;;26.53;41.24
40155;BME280;25875;48.202;16.334;2023-07-13T12:31:01;98957.94;;;27.01;41.72
40155;BME280;25875;48.202;16.334;2023-07-13T12:33:30;98964.78;;;26.90;41.13
40155;BME280;25875;48.202;16.334;2023-07-13T12:36:00;98951.97;;;26.84;41.06
40155;BME280;25875;48.202;16.334;2023-07-13T12:38:29;98949.59;;;26.74;40.97
40155;BME280;25875;48.202;16.334;2023-07-13T12:40:58;98954.69;;;26.84;41.27
40155;BME280;25875;48.202;16.334;2023-07-13T12:43:25;98955.28;;;26.79;42.22
40155;BME280;25875;48.202;16.334;2023-07-13T12:45:57;98958.22;;;26.78;42.61
40155;BME280;25875;48.202;16.334;2023-07-13T12:48:25;98697.88;;;25.06;42.94
40155;BME280;25875;48.202;16.334;2023-07-13T12:50:53;98964.28;;;26.59;43.74
40155;BME280;25875;48.202;16.334;2023-07-13T12:53:23;98912.00;;;26.29;43.39
40155;BME280;25875;48.202;16.334;2023-07-13T12:55:52;98938.31;;;26.49;43.45
40155;BME280;25875;48.202;16.334;2023-07-13T12:58:27;98939.66;;;26.60;43.62
40155;BME280;25875;48.202;16.334;2023-07-13T13:00:58;98921.41;;;26.54;43.95
40155;BME280;25875;48.202;16.334;2023-07-13T13:03:32;98936.38;;;26.65;42.60
40155;BME280;25875;48.202;16.334;2023-07-13T13:06:00;98932.72;;;26.58;42.20
40155;BME280;25875;48.202;16.334;2023-07-13T13:08:28;98935.56;;;26.71;42.69
40155;BME280;25875;48.202;16.334;2023-07-13T13:10:55;98935.91;;;26.61;42.46